Time;durP1;ratioP1;P1;durP2;ratioP2;P2;SDS_P1;SDS_P2;PMS_P1;PMS_P2;Temp;Humidity;BMP_temperature;BMP_pressure;BME280_temperature;BME280_humidity;BME280_pressure;Samples;Min_cycle;Max_cycle;Signal;HPM_P1;HPM_P2
2022/10/08 03:02:42;;;;;;;;;;;20.60;48.90;;;;;;4891433;28;45582;-62
2022/10/08 03:05:08;;;;;;;;;;;20.50;48.90;;;;;;4898708;28;45942;-62
2022/10/08 03:07:34;;;;;;;;;;;20.60;48.90;;;;;;4897392;28;45273;-62
2022/10/08 03:10:02;;;;;;;;;;;20.60;48.90;;;;;;4876643;28;45056;-62
2022/10/08 03:12:28;;;;;;;;;;;20.60;49.00;;;;;;4897060;28;46951;-62
2022/10/08 03:14:53;;;;;;;;;;;20.60;49.00;;;;;;4887447;29;45717;-62
2022/10/08 03:17:21;;;;;;;;;;;20.60;49.00;;;;;;4916903;28;46809;-62
2022/10/08 03:19:46;;;;;;;;;;;20.50;49.00;;;;;;4910183;28;45512;-62
2022/10/08 03:22:11;;;;;;;;;;;20.50;49.00;;;;;;4897550;28;46105;-62
2022/10/08 03:24:37;;;;;;;;;;;20.60;49.00;;;;;;4918782;28;45511;-62
2022/10/08 03:27:03;;;;;;;;;;;20.60;49.00;;;;;;4912506;28;44939;-61
2022/10/08 03:29:28;;;;;;;;;;;20.60;48.90;;;;;;4916380;28;45388;-61
2022/10/08 03:31:54;;;;;;;;;;;20.50;48.90;;;;;;4918350;28;45870;-63
2022/10/08 03:34:19;;;;;;;;;;;20.60;49.00;;;;;;4918381;28;45292;-61
2022/10/08 03:36:45;;;;;;;;;;;20.60;49.00;;;;;;4916163;28;45190;-62
2022/10/08 03:39:11;;;;;;;;;;;20.60;49.00;;;;;;4915682;28;45198;-62
2022/10/08 03:41:36;;;;;;;;;;;20.60;48.90;;;;;;4919249;28;46786;-62
2022/10/08 03:44:02;;;;;;;;;;;20.60;49.00;;;;;;4896025;28;45225;-62
2022/10/08 03:46:27;;;;;;;;;;;20.50;48.90;;;;;;4913570;28;44927;-62
2022/10/08 03:48:53;;;;;;;;;;;20.50;49.50;;;;;;4915579;28;45157;-62
2022/10/08 03:51:18;;;;;;;;;;;20.50;49.00;;;;;;4917363;28;47159;-62
2022/10/08 03:53:44;;;;;;;;;;;20.50;49.00;;;;;;4911445;28;45668;-63
2022/10/08 03:56:10;;;;;;;;;;;20.50;49.00;;;;;;4914673;28;45512;-61
2022/10/08 03:58:36;;;;;;;;;;;20.50;49.10;;;;;;4913995;28;45250;-62
2022/10/08 04:01:02;;;;;;;;;;;20.40;49.00;;;;;;4911435;28;46228;-61
2022/10/08 04:03:28;;;;;;;;;;;20.50;49.00;;;;;;4912075;28;45475;-62
2022/10/08 04:05:53;;;;;;;;;;;20.50;49.00;;;;;;4912188;28;45732;-61
2022/10/08 04:08:19;;;;;;;;;;;20.50;49.00;;;;;;4897884;28;44615;-62
2022/10/08 04:10:44;;;;;;;;;;;20.50;49.00;;;;;;4915300;28;45214;-61
2022/10/08 04:13:10;;;;;;;;;;;20.50;49.00;;;;;;4913227;28;45533;-62
2022/10/08 04:15:35;;;;;;;;;;;20.50;49.10;;;;;;4917480;28;45224;-62
2022/10/08 04:18:01;;;;;;;;;;;20.50;49.10;;;;;;4916516;28;45717;-62
2022/10/08 04:20:26;;;;;;;;;;;20.50;49.10;;;;;;4910759;28;45879;-62
2022/10/08 04:22:52;;;;;;;;;;;20.50;49.10;;;;;;4911670;28;45548;-62
2022/10/08 04:25:17;;;;;;;;;;;20.50;49.10;;;;;;4916693;28;44710;-62
2022/10/08 04:27:43;;;;;;;;;;;20.50;49.10;;;;;;4915644;28;45312;-62
2022/10/08 04:30:08;;;;;;;;;;;20.40;49.10;;;;;;4917496;28;45342;-62
2022/10/08 04:32:34;;;;;;;;;;;20.40;49.10;;;;;;4912956;28;45509;-62
2022/10/08 04:34:59;;;;;;;;;;;20.40;49.10;;;;;;4918702;28;45579;-62
2022/10/08 04:37:25;;;;;;;;;;;20.40;49.10;;;;;;4897713;28;45489;-62
2022/10/08 04:39:50;;;;;;;;;;;20.40;49.10;;;;;;4910413;28;46154;-62
2022/10/08 04:42:16;;;;;;;;;;;20.40;49.10;;;;;;4914410;28;45195;-62
2022/10/08 04:44:41;;;;;;;;;;;20.40;49.10;;;;;;4914260;28;45264;-62
2022/10/08 04:47:07;;;;;;;;;;;20.40;49.10;;;;;;4915059;28;44648;-62
2022/10/08 04:49:32;;;;;;;;;;;20.40;49.10;;;;;;4898988;28;46450;-62
2022/10/08 04:51:57;;;;;;;;;;;20.40;49.10;;;;;;4893290;28;45237;-63
2022/10/08 04:54:23;;;;;;;;;;;20.40;49.10;;;;;;4911167;28;45234;-63
2022/10/08 04:56:48;;;;;;;;;;;20.40;49.10;;;;;;4895821;28;44704;-63
2022/10/08 04:59:14;;;;;;;;;;;20.50;49.10;;;;;;4913632;28;46156;-63
2022/10/08 05:01:39;;;;;;;;;;;20.50;49.00;;;;;;4912897;28;45678;-63
2022/10/08 05:04:05;;;;;;;;;;;20.50;49.00;;;;;;4911330;28;44645;-62
2022/10/08 05:06:30;;;;;;;;;;;20.50;49.00;;;;;;4916644;28;45048;-64
2022/10/08 05:08:56;;;;;;;;;;;20.50;49.10;;;;;;4919539;28;45121;-63
2022/10/08 05:11:22;;;;;;;;;;;20.50;49.00;;;;;;4918835;28;45264;-64
2022/10/08 05:13:48;;;;;;;;;;;20.50;49.00;;;;;;4916245;28;45190;-63
2022/10/08 05:16:16;;;;;;;;;;;20.60;49.00;;;;;;4922283;28;45295;-61
2022/10/08 05:18:41;;;;;;;;;;;20.50;48.90;;;;;;4919268;28;45205;-62
2022/10/08 05:21:07;;;;;;;;;;;20.50;48.90;;;;;;4914566;28;44680;-62
2022/10/08 05:23:33;;;;;;;;;;;20.60;48.90;;;;;;4920783;28;44681;-61
2022/10/08 05:26:01;;;;;;;;;;;20.60;48.90;;;;;;4928750;28;45442;-63
2022/10/08 05:28:26;;;;;;;;;;;20.60;48.80;;;;;;4912854;28;46003;-62
2022/10/08 05:30:52;;;;;;;;;;;20.60;48.80;;;;;;4911022;28;45476;-62
2022/10/08 05:33:17;;;;;;;;;;;20.60;48.80;;;;;;4897767;28;45853;-63
2022/10/08 05:35:43;;;;;;;;;;;20.60;48.90;;;;;;4917599;28;45189;-62
2022/10/08 05:38:08;;;;;;;;;;;20.70;49.00;;;;;;4915763;28;47167;-63
2022/10/08 05:40:34;;;;;;;;;;;20.60;48.90;;;;;;4918152;28;45616;-62
2022/10/08 05:42:59;;;;;;;;;;;20.60;48.80;;;;;;4897531;28;45354;-63
2022/10/08 05:45:25;;;;;;;;;;;20.60;48.80;;;;;;4917034;28;45564;-62
2022/10/08 05:47:50;;;;;;;;;;;20.70;48.80;;;;;;4921527;28;46070;-63
2022/10/08 05:50:16;;;;;;;;;;;20.70;48.80;;;;;;4916228;28;45492;-61
2022/10/08 05:52:41;;;;;;;;;;;20.70;48.80;;;;;;4906604;28;45312;-62
2022/10/08 05:55:07;;;;;;;;;;;20.70;48.80;;;;;;4900329;28;44636;-63
2022/10/08 05:57:32;;;;;;;;;;;20.70;48.80;;;;;;4912958;28;45277;-63
2022/10/08 05:59:58;;;;;;;;;;;20.70;48.80;;;;;;4917565;28;45632;-63
2022/10/08 06:02:23;;;;;;;;;;;20.70;48.80;;;;;;4914121;28;46442;-64
2022/10/08 06:04:49;;;;;;;;;;;20.70;48.80;;;;;;4918528;28;44768;-63
2022/10/08 06:07:14;;;;;;;;;;;20.80;48.90;;;;;;4916134;28;45969;-63
2022/10/08 06:09:40;;;;;;;;;;;20.70;48.80;;;;;;4911358;28;45861;-63
2022/10/08 06:12:07;;;;;;;;;;;20.70;48.80;;;;;;4912916;28;45156;-63
2022/10/08 06:14:32;;;;;;;;;;;20.70;48.80;;;;;;4912698;28;45289;-63
2022/10/08 06:16:58;;;;;;;;;;;20.70;48.70;;;;;;4897641;28;45153;-63
2022/10/08 06:19:23;;;;;;;;;;;20.70;48.80;;;;;;4915106;28;45259;-62
2022/10/08 06:21:49;;;;;;;;;;;20.70;48.90;;;;;;4910032;28;45308;-61
2022/10/08 06:24:14;;;;;;;;;;;20.70;49.00;;;;;;4915500;28;45640;-63
2022/10/08 06:26:40;;;;;;;;;;;20.70;49.10;;;;;;4916232;28;46257;-63
2022/10/08 06:29:07;;;;;;;;;;;20.70;49.10;;;;;;4912649;28;45192;-62
2022/10/08 06:31:33;;;;;;;;;;;20.70;49.10;;;;;;4912321;28;45495;-62
2022/10/08 06:33:59;;;;;;;;;;;20.60;49.00;;;;;;4913275;28;45841;-63
2022/10/08 06:36:25;;;;;;;;;;;20.60;49.00;;;;;;4905715;28;46139;-63
2022/10/08 06:38:51;;;;;;;;;;;20.60;49.10;;;;;;4911383;28;45874;-62
2022/10/08 06:41:16;;;;;;;;;;;20.60;49.10;;;;;;4915775;28;44945;-63
2022/10/08 06:43:41;;;;;;;;;;;20.60;49.10;;;;;;4912802;28;45138;-63
2022/10/08 06:46:07;;;;;;;;;;;20.70;49.10;;;;;;4911345;28;45642;-62
2022/10/08 06:48:32;;;;;;;;;;;20.60;49.10;;;;;;4913101;28;45280;-63
2022/10/08 06:51:05;;;;;;;;;;;20.60;49.10;;;;;;4916314;28;44933;-63
2022/10/08 06:53:30;;;;;;;;;;;20.60;49.20;;;;;;4914482;28;45331;-63
2022/10/08 06:55:59;;;;;;;;;;;20.60;49.20;;;;;;4912517;28;46442;-63
2022/10/08 06:58:24;;;;;;;;;;;20.60;49.20;;;;;;4915701;28;45622;-63
2022/10/08 07:00:59;;;;;;;;;;;20.60;49.20;;;;;;4896676;28;45221;-63
2022/10/08 07:03:24;;;;;;;;;;;20.60;49.20;;;;;;4910234;28;45208;-63
2022/10/08 07:05:50;;;;;;;;;;;20.60;49.80;;;;;;4912961;28;45815;-63
2022/10/08 07:08:15;;;;;;;;;;;20.60;49.20;;;;;;4915241;28;45247;-63
2022/10/08 07:10:41;;;;;;;;;;;20.60;49.20;;;;;;4915497;28;45830;-62
2022/10/08 07:13:06;;;;;;;;;;;20.60;49.20;;;;;;4914427;28;45676;-63
2022/10/08 07:15:32;;;;;;;;;;;20.60;49.20;;;;;;4913321;28;46189;-63
2022/10/08 07:17:57;;;;;;;;;;;20.50;49.20;;;;;;4913718;28;45316;-61
2022/10/08 07:20:23;;;;;;;;;;;20.60;49.20;;;;;;4915354;28;45365;-61
2022/10/08 07:22:48;;;;;;;;;;;20.60;49.20;;;;;;4910842;28;45709;-63
2022/10/08 07:25:14;;;;;;;;;;;20.50;49.20;;;;;;4912272;28;45498;-63
2022/10/08 07:27:39;;;;;;;;;;;20.50;49.10;;;;;;4913935;28;45608;-63
2022/10/08 07:30:05;;;;;;;;;;;20.50;49.70;;;;;;4913016;28;45557;-63
2022/10/08 07:32:30;;;;;;;;;;;20.50;49.10;;;;;;4910990;28;45221;-63
2022/10/08 07:34:56;;;;;;;;;;;20.60;49.20;;;;;;4914221;28;46951;-63
2022/10/08 07:37:21;;;;;;;;;;;20.50;49.10;;;;;;4911489;28;44628;-63
2022/10/08 07:39:47;;;;;;;;;;;20.50;49.10;;;;;;4913569;28;44718;-63
2022/10/08 07:42:12;;;;;;;;;;;20.50;49.10;;;;;;4908563;28;46105;-63
2022/10/08 07:44:38;;;;;;;;;;;20.60;49.10;;;;;;4914730;28;46202;-63
2022/10/08 07:47:03;;;;;;;;;;;20.50;49.10;;;;;;4894685;28;44879;-63
2022/10/08 07:49:29;;;;;;;;;;;20.50;49.10;;;;;;4914453;28;45883;-63
2022/10/08 07:51:54;;;;;;;;;;;20.50;49.10;;;;;;4913030;28;45265;-63
2022/10/08 07:54:20;;;;;;;;;;;20.50;49.10;;;;;;4894991;28;46056;-63
2022/10/08 07:56:45;;;;;;;;;;;20.50;49.10;;;;;;4917862;28;45502;-63
2022/10/08 07:59:13;;;;;;;;;;;20.50;49.10;;;;;;4913905;28;45792;-63
2022/10/08 08:01:40;;;;;;;;;;;20.50;49.10;;;;;;4916788;28;45358;-63
2022/10/08 08:04:06;;;;;;;;;;;20.60;49.20;;;;;;4899187;28;46142;-63
2022/10/08 08:06:32;;;;;;;;;;;20.50;49.10;;;;;;4896357;28;44990;-63
2022/10/08 08:08:58;;;;;;;;;;;20.50;49.10;;;;;;4913124;28;45583;-63
2022/10/08 08:11:24;;;;;;;;;;;20.50;49.10;;;;;;4909946;28;46447;-63
2022/10/08 08:13:50;;;;;;;;;;;20.50;49.10;;;;;;4904154;28;46148;-65
2022/10/08 08:16:16;;;;;;;;;;;20.50;49.10;;;;;;4909067;28;45279;-63
2022/10/08 08:18:43;;;;;;;;;;;20.50;49.10;;;;;;4917265;28;44918;-63
2022/10/08 08:21:10;;;;;;;;;;;20.50;49.10;;;;;;4901525;28;45225;-63
2022/10/08 08:23:36;;;;;;;;;;;20.50;49.10;;;;;;4913956;28;45927;-63
2022/10/08 08:26:09;;;;;;;;;;;20.50;49.10;;;;;;4915695;28;45472;-63
2022/10/08 08:28:35;;;;;;;;;;;20.50;49.10;;;;;;4913496;28;45148;-63
2022/10/08 08:31:06;;;;;;;;;;;20.50;49.00;;;;;;4918683;28;44806;-64
2022/10/08 08:33:32;;;;;;;;;;;20.60;48.90;;;;;;4921049;28;45874;-63
2022/10/08 08:35:57;;;;;;;;;;;20.60;48.90;;;;;;4910632;28;45302;-63
2022/10/08 08:38:23;;;;;;;;;;;20.50;48.80;;;;;;4915056;28;45279;-63
2022/10/08 08:40:48;;;;;;;;;;;20.60;48.80;;;;;;4914310;28;45646;-63
2022/10/08 08:43:14;;;;;;;;;;;20.60;48.90;;;;;;4911631;28;45538;-63
2022/10/08 08:45:39;;;;;;;;;;;20.50;48.90;;;;;;4908439;28;45766;-63
2022/10/08 08:48:16;;;;;;;;;;;20.50;49.00;;;;;;4908785;28;45221;-63
2022/10/08 08:50:41;;;;;;;;;;;20.50;48.90;;;;;;4895303;28;45523;-63
2022/10/08 08:53:07;;;;;;;;;;;20.50;48.80;;;;;;4902198;28;45484;-63
2022/10/08 08:55:36;;;;;;;;;;;20.60;48.80;;;;;;4908571;28;46147;-63
2022/10/08 08:58:05;;;;;;;;;;;20.60;48.70;;;;;;4899393;28;44874;-63
2022/10/08 09:00:35;;;;;;;;;;;20.60;48.70;;;;;;4909965;28;45527;-63
2022/10/08 09:03:01;;;;;;;;;;;20.60;48.60;;;;;;4917597;28;46901;-63
2022/10/08 09:05:28;;;;;;;;;;;20.60;48.60;;;;;;4893161;28;45295;-62
2022/10/08 09:07:58;;;;;;;;;;;20.60;48.60;;;;;;4896948;28;45216;-62
2022/10/08 09:10:28;;;;;;;;;;;20.70;48.60;;;;;;4892521;28;45879;-62
2022/10/08 09:12:54;;;;;;;;;;;20.70;48.60;;;;;;4888927;28;45255;-63
2022/10/08 09:15:20;;;;;;;;;;;20.70;48.50;;;;;;4911517;28;45586;-62
2022/10/08 09:17:47;;;;;;;;;;;20.70;48.50;;;;;;4896891;28;45473;-63
2022/10/08 09:20:14;;;;;;;;;;;20.70;48.50;;;;;;4875149;28;45375;-63
2022/10/08 09:22:39;;;;;;;;;;;20.70;48.40;;;;;;4891060;28;47192;-63
2022/10/08 09:25:15;;;;;;;;;;;20.80;48.30;;;;;;4894328;28;45018;-63
2022/10/08 09:27:41;;;;;;;;;;;20.80;48.30;;;;;;4909901;28;45828;-63
2022/10/08 09:30:22;;;;;;;;;;;20.80;48.40;;;;;;4910319;28;45620;-63
2022/10/08 09:32:47;;;;;;;;;;;20.80;48.30;;;;;;4898850;28;45936;-63
2022/10/08 09:35:13;;;;;;;;;;;20.80;48.30;;;;;;4899219;28;45416;-63
2022/10/08 09:37:39;;;;;;;;;;;20.80;48.30;;;;;;4910084;28;45459;-63
2022/10/08 09:40:25;;;;;;;;;;;20.80;48.30;;;;;;4891958;28;44789;-63
2022/10/08 09:43:09;;;;;;;;;;;20.80;48.90;;;;;;4913026;28;46165;-63
2022/10/08 09:45:42;;;;;;;;;;;20.80;48.30;;;;;;4908819;28;45281;-63
2022/10/08 09:48:13;;;;;;;;;;;20.80;48.30;;;;;;4910963;28;45376;-63
2022/10/08 09:50:40;;;;;;;;;;;20.80;48.40;;;;;;4914013;28;45403;-62
2022/10/08 09:53:06;;;;;;;;;;;20.80;48.40;;;;;;4892558;28;46230;-63
2022/10/08 09:55:34;;;;;;;;;;;20.80;48.40;;;;;;4916246;28;45384;-62
2022/10/08 09:57:59;;;;;;;;;;;20.80;48.40;;;;;;4898325;28;45506;-61
2022/10/08 10:00:28;;;;;;;;;;;20.80;48.40;;;;;;4891355;28;45353;-63
2022/10/08 10:02:54;;;;;;;;;;;20.80;48.50;;;;;;4913064;28;46269;-63
2022/10/08 10:05:26;;;;;;;;;;;20.80;48.50;;;;;;4911974;28;45140;-63
2022/10/08 10:07:52;;;;;;;;;;;20.80;48.50;;;;;;4887307;28;45676;-63
2022/10/08 10:10:17;;;;;;;;;;;20.80;48.50;;;;;;4891594;28;45331;-63
2022/10/08 10:12:44;;;;;;;;;;;20.80;48.40;;;;;;4909794;28;45878;-64
2022/10/08 10:15:39;;;;;;;;;;;20.80;48.40;;;;;;4914646;28;45286;-63
2022/10/08 10:18:10;;;;;;;;;;;20.90;48.50;;;;;;4889700;28;45620;-63
2022/10/08 10:20:39;;;;;;;;;;;20.80;48.40;;;;;;4893214;28;45430;-62
2022/10/08 10:23:09;;;;;;;;;;;20.90;48.40;;;;;;4917297;28;46032;-61
2022/10/08 10:25:40;;;;;;;;;;;20.90;48.50;;;;;;4907122;28;45304;-63
2022/10/08 10:28:07;;;;;;;;;;;20.80;48.40;;;;;;4893285;28;45741;-62
2022/10/08 10:30:33;;;;;;;;;;;20.80;48.40;;;;;;4897630;28;45391;-63
2022/10/08 10:33:01;;;;;;;;;;;20.80;48.40;;;;;;4890460;28;46030;-63
2022/10/08 10:35:27;;;;;;;;;;;20.80;48.40;;;;;;4893403;28;45421;-62
2022/10/08 10:37:56;;;;;;;;;;;20.90;48.50;;;;;;4896922;28;45336;-61
2022/10/08 10:40:29;;;;;;;;;;;20.90;48.50;;;;;;4895876;28;45226;-62
2022/10/08 10:43:06;;;;;;;;;;;20.90;48.40;;;;;;4916335;28;46209;-63
2022/10/08 10:45:35;;;;;;;;;;;20.90;48.50;;;;;;4911603;28;44919;-62
2022/10/08 10:48:00;;;;;;;;;;;20.90;48.40;;;;;;4915634;28;45184;-63
2022/10/08 10:50:32;;;;;;;;;;;20.90;48.40;;;;;;4899841;28;45264;-63
2022/10/08 10:53:07;;;;;;;;;;;20.90;48.50;;;;;;4916215;28;45358;-63
2022/10/08 10:55:39;;;;;;;;;;;20.90;48.50;;;;;;4913102;28;45241;-62
2022/10/08 10:58:15;;;;;;;;;;;20.80;48.50;;;;;;4913924;28;45321;-62
2022/10/08 11:00:46;;;;;;;;;;;20.80;48.50;;;;;;4911679;28;46283;-62
2022/10/08 11:03:47;;;;;;;;;;;20.90;49.20;;;;;;4911835;28;45896;-63
2022/10/08 11:06:20;;;;;;;;;;;20.80;48.50;;;;;;4809714;29;45634;-62
2022/10/08 11:08:57;;;;;;;;;;;20.80;48.60;;;;;;4881408;28;45548;-62
2022/10/08 11:11:24;;;;;;;;;;;20.80;48.60;;;;;;4914620;28;45713;-63
2022/10/08 11:13:53;;;;;;;;;;;20.90;48.60;;;;;;4890346;28;46919;-64
2022/10/08 11:16:30;;;;;;;;;;;20.90;48.70;;;;;;4911439;28;45083;-63
2022/10/08 11:18:57;;;;;;;;;;;20.80;48.60;;;;;;4881455;28;44648;-62
2022/10/08 11:21:41;;;;;;;;;;;20.90;48.60;;;;;;4899670;28;45266;-62
2022/10/08 11:24:10;;;;;;;;;;;20.90;48.60;;;;;;4921155;28;45909;-63
2022/10/08 11:26:56;;;;;;;;;;;20.90;48.60;;;;;;4898102;28;44802;-62
2022/10/08 11:29:27;;;;;;;;;;;20.90;48.60;;;;;;4905822;28;45648;-62
2022/10/08 11:31:52;;;;;;;;;;;20.90;48.50;;;;;;4895208;28;46208;-62
2022/10/08 11:34:22;;;;;;;;;;;20.90;48.40;;;;;;4907793;28;45421;-61
2022/10/08 11:37:06;;;;;;;;;;;20.90;48.40;;;;;;4892045;28;45529;-62
2022/10/08 11:39:32;;;;;;;;;;;20.90;48.40;;;;;;4914027;28;45345;-62
2022/10/08 11:42:15;;;;;;;;;;;21.00;48.40;;;;;;4911127;28;45425;-62
2022/10/08 11:44:41;;;;;;;;;;;21.00;48.30;;;;;;4908706;28;45971;-63
2022/10/08 11:47:25;;;;;;;;;;;21.00;48.30;;;;;;4916026;28;44672;-63
2022/10/08 11:49:54;;;;;;;;;;;21.00;48.30;;;;;;4909899;28;45403;-62
2022/10/08 11:52:19;;;;;;;;;;;21.00;48.30;;;;;;4896503;28;45492;-62
2022/10/08 11:54:48;;;;;;;;;;;21.00;48.30;;;;;;4917500;28;45299;-65
2022/10/08 11:57:17;;;;;;;;;;;21.00;48.30;;;;;;4899100;28;44767;-62
2022/10/08 11:59:43;;;;;;;;;;;21.00;48.40;;;;;;4908938;28;45163;-62
2022/10/08 12:02:19;;;;;;;;;;;21.00;48.40;;;;;;4889068;28;44875;-62
2022/10/08 12:04:45;;;;;;;;;;;21.00;48.40;;;;;;4882160;28;46096;-62
2022/10/08 12:07:13;;;;;;;;;;;21.00;48.40;;;;;;4887619;28;45266;-62
2022/10/08 12:09:57;;;;;;;;;;;20.90;48.30;;;;;;4891018;28;45110;-62
2022/10/08 12:12:23;;;;;;;;;;;21.00;48.30;;;;;;4893065;28;45270;-63
2022/10/08 12:14:48;;;;;;;;;;;21.00;48.40;;;;;;4893637;28;45458;-62
2022/10/08 12:17:14;;;;;;;;;;;21.00;48.40;;;;;;4893029;28;45407;-62
2022/10/08 12:19:39;;;;;;;;;;;21.00;48.40;;;;;;4894659;28;45242;-63
2022/10/08 12:22:15;;;;;;;;;;;20.90;48.40;;;;;;4893039;28;45150;-61
2022/10/08 12:24:42;;;;;;;;;;;21.00;48.50;;;;;;4889024;28;46247;-62
2022/10/08 12:27:17;;;;;;;;;;;21.00;48.40;;;;;;4894723;28;45598;-62
2022/10/08 12:29:54;;;;;;;;;;;21.00;48.40;;;;;;4892260;28;45216;-62
2022/10/08 12:32:24;;;;;;;;;;;21.00;48.40;;;;;;4888550;28;45243;-62
2022/10/08 12:34:50;;;;;;;;;;;21.00;48.40;;;;;;4892599;28;46098;-62
2022/10/08 12:37:22;;;;;;;;;;;21.00;48.40;;;;;;4893617;28;45477;-63
2022/10/08 12:39:47;;;;;;;;;;;21.00;48.40;;;;;;4892196;28;45317;-62
2022/10/08 12:42:31;;;;;;;;;;;21.00;48.40;;;;;;4891562;28;45532;-63
2022/10/08 12:45:17;;;;;;;;;;;21.00;48.50;;;;;;4891611;28;46165;-62
2022/10/08 12:48:12;;;;;;;;;;;21.00;48.60;;;;;;4885680;28;45640;-62
2022/10/08 12:50:42;;;;;;;;;;;20.90;48.60;;;;;;4890808;28;44795;-61
2022/10/08 12:53:09;;;;;;;;;;;21.00;48.60;;;;;;4890476;28;44714;-62
2022/10/08 12:55:48;;;;;;;;;;;21.00;48.50;;;;;;4892060;28;45353;-62
2022/10/08 12:58:15;;;;;;;;;;;21.00;48.50;;;;;;4894381;28;45517;-63
2022/10/08 13:00:40;;;;;;;;;;;21.00;48.50;;;;;;4896152;28;46072;-63
2022/10/08 13:03:11;;;;;;;;;;;21.00;48.50;;;;;;4913498;28;45404;-62
2022/10/08 13:05:37;;;;;;;;;;;21.00;48.50;;;;;;4912161;28;46153;-62
2022/10/08 13:08:22;;;;;;;;;;;21.00;48.50;;;;;;4889478;28;45380;-62
2022/10/08 13:10:47;;;;;;;;;;;21.00;48.50;;;;;;4880456;28;45329;-63
2022/10/08 13:13:32;;;;;;;;;;;21.00;48.50;;;;;;4914457;28;45147;-61
2022/10/08 13:15:58;;;;;;;;;;;21.00;48.50;;;;;;4894037;28;45324;-63
2022/10/08 13:18:23;;;;;;;;;;;21.00;48.50;;;;;;4897400;28;45360;-62
2022/10/08 13:20:58;;;;;;;;;;;21.00;48.50;;;;;;4914343;28;45719;-62
2022/10/08 13:23:25;;;;;;;;;;;21.00;48.50;;;;;;4898558;28;45641;-62
2022/10/08 13:25:50;;;;;;;;;;;21.00;48.40;;;;;;4915618;28;46906;-62
2022/10/08 13:28:22;;;;;;;;;;;21.00;48.50;;;;;;4914110;28;46803;-63
2022/10/08 13:30:47;;;;;;;;;;;21.00;48.50;;;;;;4915061;28;45162;-62
2022/10/08 13:33:17;;;;;;;;;;;21.00;48.50;;;;;;4898931;28;45574;-63
2022/10/08 13:35:43;;;;;;;;;;;21.00;48.50;;;;;;4917824;28;46212;-63
2022/10/08 13:38:08;;;;;;;;;;;21.00;48.50;;;;;;4898208;28;45549;-62
2022/10/08 13:40:34;;;;;;;;;;;21.00;48.50;;;;;;4915525;28;46064;-62
2022/10/08 13:43:00;;;;;;;;;;;21.00;48.50;;;;;;4900123;28;45535;-63
2022/10/08 13:45:29;;;;;;;;;;;21.00;48.50;;;;;;4914304;28;46587;-62
2022/10/08 13:47:55;;;;;;;;;;;21.00;48.50;;;;;;4888486;28;46055;-63
2022/10/08 13:50:21;;;;;;;;;;;21.00;48.60;;;;;;4906374;28;45458;-62
2022/10/08 13:52:50;;;;;;;;;;;21.00;48.60;;;;;;4883905;28;45173;-63
2022/10/08 13:55:21;;;;;;;;;;;21.00;48.60;;;;;;4910164;28;45084;-63
2022/10/08 13:57:46;;;;;;;;;;;21.00;48.50;;;;;;4921157;28;45308;-63
2022/10/08 14:00:13;;;;;;;;;;;21.00;48.50;;;;;;4907813;28;45564;-62
2022/10/08 14:02:42;;;;;;;;;;;21.00;48.60;;;;;;4884779;28;45053;-63
2022/10/08 14:05:07;;;;;;;;;;;21.00;48.50;;;;;;4891605;28;46269;-62
2022/10/08 14:07:33;;;;;;;;;;;21.00;48.60;;;;;;4893115;28;44990;-62
2022/10/08 14:09:58;;;;;;;;;;;21.00;48.50;;;;;;4899982;28;45251;-62
2022/10/08 14:12:25;;;;;;;;;;;20.90;48.50;;;;;;4893133;28;45570;-62
2022/10/08 14:14:51;;;;;;;;;;;21.00;48.60;;;;;;4889841;28;45943;-63
2022/10/08 14:17:16;;;;;;;;;;;21.00;48.60;;;;;;4889884;28;45428;-63
2022/10/08 14:19:42;;;;;;;;;;;21.00;48.60;;;;;;4890129;28;45485;-63
2022/10/08 14:22:07;;;;;;;;;;;21.00;48.60;;;;;;4882748;28;46877;-63
2022/10/08 14:24:33;;;;;;;;;;;21.00;48.60;;;;;;4885003;28;47129;-62
2022/10/08 14:27:00;;;;;;;;;;;21.00;48.60;;;;;;4891774;28;45488;-63
2022/10/08 14:29:25;;;;;;;;;;;21.00;49.30;;;;;;4891306;28;46047;-63
2022/10/08 14:31:51;;;;;;;;;;;21.00;48.60;;;;;;4893022;28;45312;-63
2022/10/08 14:34:18;;;;;;;;;;;21.00;48.60;;;;;;4890326;28;45375;-63
2022/10/08 14:36:43;;;;;;;;;;;21.00;48.60;;;;;;4889928;28;45124;-63
2022/10/08 14:39:09;;;;;;;;;;;21.00;48.60;;;;;;4891020;28;45932;-63
2022/10/08 14:41:34;;;;;;;;;;;21.00;48.60;;;;;;4893802;28;45474;-62
2022/10/08 14:44:01;;;;;;;;;;;21.00;48.60;;;;;;4892667;28;45238;-63
2022/10/08 14:46:27;;;;;;;;;;;21.00;48.50;;;;;;4889678;28;45209;-63
2022/10/08 14:48:55;;;;;;;;;;;21.00;48.50;;;;;;4891520;28;44816;-63
2022/10/08 14:51:20;;;;;;;;;;;21.00;48.40;;;;;;4892947;28;45887;-63
2022/10/08 14:53:46;;;;;;;;;;;21.00;48.50;;;;;;4891521;28;46086;-63
2022/10/08 14:56:11;;;;;;;;;;;21.00;48.50;;;;;;4892122;28;45299;-62
2022/10/08 14:58:37;;;;;;;;;;;21.00;48.50;;;;;;4890677;28;45627;-63
2022/10/08 15:01:03;;;;;;;;;;;21.00;48.50;;;;;;4898675;28;44702;-63
2022/10/08 15:03:28;;;;;;;;;;;21.00;48.50;;;;;;4912330;28;46226;-63
2022/10/08 15:05:56;;;;;;;;;;;21.00;48.50;;;;;;4913177;28;45523;-63
2022/10/08 15:08:22;;;;;;;;;;;21.00;48.50;;;;;;4901750;28;45434;-62
2022/10/08 15:10:47;;;;;;;;;;;21.00;48.50;;;;;;4878503;28;44899;-63
2022/10/08 15:13:12;;;;;;;;;;;21.00;48.50;;;;;;4915837;28;46171;-63
2022/10/08 15:15:42;;;;;;;;;;;21.00;48.50;;;;;;4920986;28;45443;-63
2022/10/08 15:18:07;;;;;;;;;;;21.00;48.60;;;;;;4908909;28;44916;-62
2022/10/08 15:20:33;;;;;;;;;;;21.00;48.60;;;;;;4905721;28;45565;-63
2022/10/08 15:22:59;;;;;;;;;;;21.00;48.60;;;;;;4911321;28;46152;-63
2022/10/08 15:25:26;;;;;;;;;;;21.00;48.60;;;;;;4909614;28;45369;-63
2022/10/08 15:27:51;;;;;;;;;;;21.00;48.60;;;;;;4895103;28;45682;-62
2022/10/08 15:30:17;;;;;;;;;;;21.00;48.60;;;;;;4919811;28;45136;-61
2022/10/08 15:32:42;;;;;;;;;;;21.00;48.60;;;;;;4908868;28;45614;-63
2022/10/08 15:35:08;;;;;;;;;;;21.00;48.60;;;;;;4914588;28;44951;-63
2022/10/08 15:37:33;;;;;;;;;;;21.00;48.60;;;;;;4913158;28;45125;-63
2022/10/08 15:39:59;;;;;;;;;;;21.00;48.60;;;;;;4918725;28;44854;-63
2022/10/08 15:42:24;;;;;;;;;;;21.00;48.70;;;;;;4913153;28;46007;-62
2022/10/08 15:44:50;;;;;;;;;;;21.00;48.60;;;;;;4915190;28;45258;-62
2022/10/08 15:47:15;;;;;;;;;;;21.00;48.70;;;;;;4914328;28;46062;-63
2022/10/08 15:49:50;;;;;;;;;;;20.90;48.60;;;;;;4912843;28;45192;-63
2022/10/08 15:52:17;;;;;;;;;;;20.90;48.60;;;;;;4895917;28;45705;-63
2022/10/08 15:54:42;;;;;;;;;;;21.00;48.70;;;;;;4912673;28;45216;-63
2022/10/08 15:57:08;;;;;;;;;;;20.90;48.60;;;;;;4914978;28;45555;-63
2022/10/08 15:59:34;;;;;;;;;;;20.90;48.70;;;;;;4899842;28;46343;-61
2022/10/08 16:01:59;;;;;;;;;;;21.00;48.70;;;;;;4913123;28;46168;-63
2022/10/08 16:04:25;;;;;;;;;;;20.90;48.70;;;;;;4913903;28;45176;-63
2022/10/08 16:06:50;;;;;;;;;;;20.90;48.70;;;;;;4916444;28;44907;-63
2022/10/08 16:09:16;;;;;;;;;;;20.90;48.70;;;;;;4910711;28;45298;-62
2022/10/08 16:11:51;;;;;;;;;;;20.90;48.70;;;;;;4913265;28;45244;-62
2022/10/08 16:14:17;;;;;;;;;;;20.90;48.70;;;;;;4897566;28;44767;-63
2022/10/08 16:16:43;;;;;;;;;;;20.90;48.80;;;;;;4912744;28;44763;-62
2022/10/08 16:19:12;;;;;;;;;;;20.90;48.80;;;;;;4909511;28;45460;-62
2022/10/08 16:21:37;;;;;;;;;;;20.90;48.80;;;;;;4912375;28;45260;-62
2022/10/08 16:24:03;;;;;;;;;;;20.90;48.90;;;;;;4897963;28;44717;-62
2022/10/08 16:26:30;;;;;;;;;;;20.90;48.90;;;;;;4911551;28;45374;-62
2022/10/08 16:28:57;;;;;;;;;;;20.80;48.80;;;;;;4913631;28;45400;-62
2022/10/08 16:31:26;;;;;;;;;;;20.90;48.90;;;;;;4911180;28;45266;-62
2022/10/08 16:33:55;;;;;;;;;;;20.90;48.90;;;;;;4915886;28;45166;-62
2022/10/08 16:36:21;;;;;;;;;;;20.90;48.90;;;;;;4911186;28;44742;-62
2022/10/08 16:38:46;;;;;;;;;;;20.90;48.90;;;;;;4910686;28;45019;-62
2022/10/08 16:41:13;;;;;;;;;;;20.90;48.90;;;;;;4896368;28;48356;-62
2022/10/08 16:43:38;;;;;;;;;;;20.90;49.00;;;;;;4893841;28;44895;-63
2022/10/08 16:46:04;;;;;;;;;;;20.80;48.90;;;;;;4912816;28;45268;-63
2022/10/08 16:48:29;;;;;;;;;;;20.80;48.90;;;;;;4907527;28;44768;-63
2022/10/08 16:50:55;;;;;;;;;;;20.80;48.90;;;;;;4911753;28;45978;-62
2022/10/08 16:53:20;;;;;;;;;;;20.80;48.90;;;;;;4915880;28;44572;-62
2022/10/08 16:55:46;;;;;;;;;;;20.80;48.90;;;;;;4908833;28;45184;-63
2022/10/08 16:58:11;;;;;;;;;;;20.80;49.00;;;;;;4911580;28;45439;-63
2022/10/08 17:00:36;;;;;;;;;;;20.80;49.00;;;;;;4910833;28;46166;-62
2022/10/08 17:03:02;;;;;;;;;;;20.80;49.00;;;;;;4916105;28;45235;-62
2022/10/08 17:05:28;;;;;;;;;;;20.80;49.00;;;;;;4913092;28;45350;-63
2022/10/08 17:07:53;;;;;;;;;;;20.80;49.00;;;;;;4915969;28;46025;-62
2022/10/08 17:10:19;;;;;;;;;;;20.80;49.00;;;;;;4913370;28;47017;-62
2022/10/08 17:12:44;;;;;;;;;;;20.80;49.00;;;;;;4892748;28;45406;-65
2022/10/08 17:15:10;;;;;;;;;;;20.80;49.70;;;;;;4917195;28;45105;-62
2022/10/08 17:17:35;;;;;;;;;;;20.80;49.10;;;;;;4914159;28;45417;-62
2022/10/08 17:20:01;;;;;;;;;;;20.80;49.20;;;;;;4914660;28;45559;-62